createdAt,value
2018-07-02T00:00:20.248Z,20.20
2018-07-02T00:02:49.445Z,20.10
2018-07-02T00:05:19.704Z,20.10
2018-07-02T00:07:48.952Z,19.90
2018-07-02T00:10:18.132Z,19.90
2018-07-02T00:12:47.437Z,19.90
2018-07-02T00:15:16.636Z,19.90
2018-07-02T00:17:45.960Z,19.80
2018-07-02T00:20:15.191Z,19.80
2018-07-02T00:22:44.487Z,19.70
2018-07-02T00:25:13.928Z,19.90
2018-07-02T00:27:43.111Z,19.80
2018-07-02T00:30:12.416Z,19.90
2018-07-02T00:32:42.119Z,19.90
2018-07-02T00:35:11.751Z,19.90
2018-07-02T00:37:41.403Z,19.90
2018-07-02T00:40:10.579Z,19.90
2018-07-02T00:42:40.214Z,19.90
2018-07-02T00:45:09.408Z,19.90
2018-07-02T00:47:38.757Z,19.90
2018-07-02T00:50:08.229Z,19.90
2018-07-02T00:52:37.579Z,19.80
2018-07-02T00:55:06.865Z,19.80
2018-07-02T00:57:36.431Z,19.80
2018-07-02T01:00:14.195Z,19.60
2018-07-02T01:02:43.476Z,19.60
2018-07-02T01:05:13.391Z,19.60
2018-07-02T01:07:44.065Z,19.60
2018-07-02T01:10:13.550Z,19.50
2018-07-02T01:12:43.234Z,19.50
2018-07-02T01:15:12.655Z,19.30
2018-07-02T01:20:10.966Z,19.30
2018-07-02T01:22:40.239Z,19.20
2018-07-02T01:25:09.419Z,19.20
2018-07-02T01:27:38.603Z,19.10
2018-07-02T01:30:07.831Z,19.20
2018-07-02T01:32:37.067Z,19.20
2018-07-02T01:35:06.270Z,19.10
2018-07-02T01:37:35.441Z,19.00
2018-07-02T01:45:02.413Z,19.00
2018-07-02T01:50:00.519Z,19.10
2018-07-02T01:52:29.699Z,19.10
2018-07-02T01:54:58.880Z,19.20
2018-07-02T01:57:28.245Z,19.10
2018-07-02T01:59:57.682Z,19.10
2018-07-02T02:02:26.871Z,19.10
2018-07-02T02:04:56.042Z,19.00
2018-07-02T02:07:25.240Z,18.90
2018-07-02T02:09:54.413Z,18.90
2018-07-02T02:12:23.591Z,18.80
2018-07-02T02:17:21.671Z,18.70
2018-07-02T02:22:19.889Z,18.70
2018-07-02T02:24:49.363Z,18.60
2018-07-02T02:34:45.568Z,18.60
2018-07-02T02:37:15.131Z,18.50
2018-07-02T02:39:44.789Z,18.50
2018-07-02T02:42:14.198Z,18.50
2018-07-02T02:44:43.968Z,18.40
2018-07-02T02:47:13.161Z,18.40
2018-07-02T02:49:42.338Z,18.40
2018-07-02T02:52:11.574Z,18.30
2018-07-02T02:54:43.851Z,18.30
2018-07-02T02:57:13.540Z,18.30
2018-07-02T02:59:43.158Z,18.30
2018-07-02T03:02:12.583Z,18.30
2018-07-02T03:04:41.831Z,18.20
2018-07-02T03:07:11.132Z,18.20
2018-07-02T03:09:40.339Z,18.20
2018-07-02T03:12:09.479Z,18.20
2018-07-02T03:14:38.687Z,18.10
2018-07-02T03:17:07.896Z,18.10
2018-07-02T03:19:37.055Z,18.10
2018-07-02T03:22:06.763Z,18.10
2018-07-02T03:24:36.111Z,18.00
2018-07-02T03:27:05.349Z,18.00
2018-07-02T03:32:03.428Z,18.00
2018-07-02T03:34:32.599Z,17.90
2018-07-02T03:37:01.801Z,17.90
2018-07-02T03:39:30.988Z,18.00
2018-07-02T03:42:00.343Z,17.90
2018-07-02T03:44:29.544Z,17.90
2018-07-02T03:46:58.748Z,17.90
2018-07-02T03:49:27.909Z,17.90
2018-07-02T03:51:59.031Z,17.90
2018-07-02T03:54:28.178Z,17.80
2018-07-02T03:56:57.377Z,17.80
2018-07-02T03:59:26.605Z,17.90
2018-07-02T04:01:55.807Z,17.90
2018-07-02T04:04:25.004Z,17.90
2018-07-02T04:06:54.264Z,17.90
2018-07-02T04:09:23.556Z,17.90
2018-07-02T04:14:22.065Z,17.80
2018-07-02T04:19:20.183Z,17.90
2018-07-02T04:21:49.732Z,18.00
2018-07-02T04:24:19.055Z,18.00
2018-07-02T04:26:48.651Z,18.10
2018-07-02T04:31:47.114Z,18.00
2018-07-02T04:34:16.279Z,18.10
2018-07-02T04:36:45.457Z,18.00
2018-07-02T04:39:14.877Z,18.10
2018-07-02T04:41:44.208Z,18.20
2018-07-02T04:44:13.600Z,18.20
2018-07-02T04:46:42.811Z,18.30
2018-07-02T04:49:11.968Z,18.30
2018-07-02T04:51:41.175Z,18.30
2018-07-02T04:54:10.363Z,18.30
2018-07-02T04:56:39.576Z,18.20
2018-07-02T04:59:08.787Z,18.30
2018-07-02T05:01:37.967Z,18.30
2018-07-02T05:04:07.328Z,18.40
2018-07-02T05:06:36.631Z,18.40
2018-07-02T05:09:07.980Z,18.40
2018-07-02T05:14:06.174Z,18.60
2018-07-02T05:16:35.395Z,18.70
2018-07-02T05:19:04.700Z,18.70
2018-07-02T05:21:34.155Z,18.80
2018-07-02T05:24:03.383Z,18.80
2018-07-02T05:26:32.539Z,18.80
2018-07-02T05:29:01.836Z,18.90
2018-07-02T05:31:31.056Z,19.00
2018-07-02T05:34:00.324Z,19.00
2018-07-02T05:36:29.515Z,19.00
2018-07-02T05:38:58.802Z,19.10
2018-07-02T05:41:27.973Z,19.10
2018-07-02T05:43:57.148Z,19.10
2018-07-02T05:46:26.284Z,19.10
2018-07-02T05:48:55.467Z,19.10
2018-07-02T05:51:24.935Z,19.20
2018-07-02T05:53:54.102Z,19.30
2018-07-02T05:56:23.463Z,19.30
2018-07-02T06:01:21.912Z,19.40
2018-07-02T06:03:51.680Z,19.50
2018-07-02T06:06:20.877Z,19.50
2018-07-02T06:08:51.064Z,19.60
2018-07-02T06:11:20.313Z,19.70
2018-07-02T06:13:50.436Z,19.70
2018-07-02T06:16:19.645Z,19.80
2018-07-02T06:18:49.937Z,19.90
2018-07-02T06:21:19.913Z,20.10
2018-07-02T06:23:50.244Z,20.10
2018-07-02T06:26:19.583Z,20.20
2018-07-02T06:28:49.965Z,20.20
2018-07-02T06:31:19.243Z,20.40
2018-07-02T06:33:48.493Z,20.50
2018-07-02T06:36:18.012Z,20.60
2018-07-02T06:38:47.875Z,20.60
2018-07-02T06:41:17.043Z,20.80
2018-07-02T06:43:46.291Z,20.80
2018-07-02T06:46:15.576Z,20.60
2018-07-02T06:48:45.021Z,20.70
2018-07-02T06:51:14.267Z,20.90
2018-07-02T06:53:44.085Z,21.00
2018-07-02T06:56:13.278Z,21.10
2018-07-02T06:58:42.904Z,21.20
2018-07-02T07:01:12.066Z,21.20
2018-07-02T07:03:41.488Z,21.30
2018-07-02T07:06:11.324Z,21.40
2018-07-02T07:11:09.451Z,21.70
2018-07-02T07:13:39.198Z,21.80
2018-07-02T07:16:08.499Z,21.90
2018-07-02T07:18:37.748Z,22.00
2018-07-02T07:21:08.056Z,21.90
2018-07-02T07:23:37.251Z,21.80
2018-07-02T07:26:06.624Z,21.90
2018-07-02T07:28:35.809Z,22.00
2018-07-02T07:31:05.158Z,22.10
2018-07-02T07:33:34.348Z,22.10
2018-07-02T07:36:03.676Z,22.20
2018-07-02T07:38:33.346Z,22.30
2018-07-02T07:41:02.708Z,22.30
2018-07-02T07:43:32.790Z,22.50
2018-07-02T07:46:02.270Z,22.50
2018-07-02T07:48:31.863Z,22.60
2018-07-02T07:51:01.300Z,22.80
2018-07-02T07:53:30.767Z,22.80
2018-07-02T07:56:00.130Z,22.90
2018-07-02T07:58:29.731Z,22.90
2018-07-02T08:00:59.050Z,23.00
2018-07-02T08:03:28.394Z,23.20
2018-07-02T08:05:57.675Z,23.30
2018-07-02T08:08:27.079Z,23.40
2018-07-02T08:10:56.473Z,23.40
2018-07-02T08:13:25.695Z,23.50
2018-07-02T08:15:55.487Z,23.50
2018-07-02T08:18:24.817Z,23.60
2018-07-02T08:20:54.619Z,23.60
2018-07-02T08:23:23.940Z,23.70
2018-07-02T08:25:53.615Z,23.80
2018-07-02T08:28:22.804Z,23.80
2018-07-02T08:30:52.737Z,23.90
2018-07-02T08:33:22.028Z,24.10
2018-07-02T08:35:51.187Z,24.10
2018-07-02T08:38:20.674Z,24.20
2018-07-02T08:40:50.178Z,24.30
2018-07-02T08:43:19.583Z,24.30
2018-07-02T08:45:48.803Z,24.10
2018-07-02T08:48:18.084Z,24.30
2018-07-02T08:50:47.275Z,24.40
2018-07-02T08:53:16.531Z,24.50
2018-07-02T08:55:45.876Z,24.60
2018-07-02T08:58:15.538Z,24.70
2018-07-02T09:00:44.848Z,24.90
2018-07-02T09:03:14.976Z,25.10
2018-07-02T09:05:44.232Z,25.30
2018-07-02T09:08:13.394Z,25.30
2018-07-02T09:10:42.647Z,25.00
2018-07-02T09:13:14.847Z,25.00
2018-07-02T09:15:44.041Z,25.20
2018-07-02T09:18:13.216Z,25.40
2018-07-02T09:20:42.699Z,25.40
2018-07-02T09:23:11.920Z,25.50
2018-07-02T09:25:41.343Z,25.50
2018-07-02T09:28:10.564Z,25.60
2018-07-02T09:30:39.835Z,25.60
2018-07-02T09:33:09.318Z,25.50
2018-07-02T09:35:38.533Z,25.40
2018-07-02T09:38:07.735Z,25.50
2018-07-02T09:40:36.966Z,25.70
2018-07-02T09:43:06.234Z,25.80
2018-07-02T09:45:35.535Z,25.80
2018-07-02T09:48:04.886Z,25.90
2018-07-02T09:50:34.134Z,26.00
2018-07-02T09:53:03.349Z,25.80
2018-07-02T09:55:32.532Z,25.60
2018-07-02T09:58:02.124Z,25.80
2018-07-02T10:00:33.034Z,26.00
2018-07-02T10:03:02.219Z,26.10
2018-07-02T10:05:31.681Z,26.30
2018-07-02T10:08:01.118Z,26.30
2018-07-02T10:10:30.463Z,26.50
2018-07-02T10:12:59.721Z,26.50
2018-07-02T10:15:30.020Z,26.60
2018-07-02T10:17:59.762Z,26.40
2018-07-02T10:20:29.422Z,26.50
2018-07-02T10:25:27.560Z,26.80
2018-07-02T10:27:57.112Z,26.50
2018-07-02T10:30:26.605Z,26.50
2018-07-02T10:32:56.029Z,26.50
2018-07-02T10:35:25.307Z,26.70
2018-07-02T10:37:54.521Z,26.70
2018-07-02T10:40:23.852Z,26.70
2018-07-02T10:42:53.323Z,26.70
2018-07-02T10:45:22.508Z,26.90
2018-07-02T10:47:51.936Z,27.00
2018-07-02T10:50:23.048Z,26.90
2018-07-02T10:52:52.444Z,26.90
2018-07-02T10:55:21.851Z,27.00
2018-07-02T10:57:51.068Z,27.00
2018-07-02T11:00:20.307Z,26.70
2018-07-02T11:02:49.628Z,26.80
2018-07-02T11:05:18.810Z,26.80
2018-07-02T11:07:48.211Z,27.10
2018-07-02T11:10:17.439Z,27.40
2018-07-02T11:12:48.671Z,27.30
2018-07-02T11:15:18.135Z,27.30
2018-07-02T11:17:47.530Z,27.40
2018-07-02T11:20:16.831Z,27.50
2018-07-02T11:22:46.033Z,27.50
2018-07-02T11:25:15.203Z,27.40
2018-07-02T11:27:44.435Z,27.50
2018-07-02T11:30:13.680Z,27.60
2018-07-02T11:32:43.090Z,27.50
2018-07-02T11:35:12.368Z,27.20
2018-07-02T11:37:41.598Z,27.50
2018-07-02T11:40:10.915Z,27.50
2018-07-02T11:42:43.422Z,27.60
2018-07-02T11:45:12.753Z,27.80
2018-07-02T11:47:42.239Z,27.80
2018-07-02T11:50:11.504Z,27.80
2018-07-02T11:52:41.146Z,27.50
2018-07-02T11:55:10.591Z,27.70
2018-07-02T11:57:40.400Z,27.50
2018-07-02T12:00:10.272Z,27.60
2018-07-02T12:02:40.054Z,27.80
2018-07-02T12:05:09.350Z,27.80
2018-07-02T12:07:38.558Z,28.10
2018-07-02T12:10:07.768Z,28.20
2018-07-02T12:12:37.003Z,28.20
2018-07-02T12:15:06.441Z,28.30
2018-07-02T12:17:35.817Z,28.50
2018-07-02T12:20:05.413Z,28.60
2018-07-02T12:22:34.659Z,28.80
2018-07-02T12:25:03.901Z,29.00
2018-07-02T12:27:33.276Z,29.00
2018-07-02T12:30:03.246Z,29.00
2018-07-02T12:32:32.508Z,29.00
2018-07-02T12:35:01.797Z,29.10
2018-07-02T12:37:31.043Z,29.30
2018-07-02T12:40:00.760Z,29.30
2018-07-02T12:42:29.999Z,29.20
2018-07-02T12:44:59.690Z,29.40
2018-07-02T12:47:29.165Z,29.50
2018-07-02T12:49:58.929Z,29.50
2018-07-02T12:52:28.232Z,29.70
2018-07-02T12:54:57.696Z,29.90
2018-07-02T12:57:27.408Z,29.80
2018-07-02T12:59:56.713Z,29.60
2018-07-02T13:02:25.868Z,29.50
2018-07-02T13:04:55.728Z,29.50
2018-07-02T13:07:24.981Z,29.70
2018-07-02T13:09:54.336Z,29.40
2018-07-02T13:12:23.625Z,29.40
2018-07-02T13:14:53.671Z,28.80
2018-07-02T13:17:22.847Z,28.70
2018-07-02T13:19:52.101Z,29.00
2018-07-02T13:22:23.394Z,29.40
2018-07-02T13:24:52.909Z,29.40
2018-07-02T13:27:22.133Z,29.50
2018-07-02T13:29:51.508Z,30.00
2018-07-02T13:32:20.902Z,30.00
2018-07-02T13:34:50.890Z,30.20
2018-07-02T13:37:20.203Z,30.20
2018-07-02T13:42:18.835Z,30.60
2018-07-02T13:44:48.076Z,30.60
2018-07-02T13:47:17.419Z,30.60
2018-07-02T13:49:46.864Z,30.60
2018-07-02T13:52:16.142Z,30.70
2018-07-02T13:54:45.370Z,30.80
2018-07-02T13:57:14.723Z,30.30
2018-07-02T13:59:44.097Z,29.90
2018-07-02T14:02:13.423Z,30.00
2018-07-02T14:04:42.829Z,30.20
2018-07-02T14:07:12.902Z,29.90
2018-07-02T14:09:42.192Z,30.60
2018-07-02T14:12:11.367Z,30.70
2018-07-02T14:14:40.644Z,30.50
2018-07-02T14:17:10.192Z,30.70
2018-07-02T14:19:39.603Z,30.60
2018-07-02T14:22:09.289Z,30.70
2018-07-02T14:24:38.576Z,30.70
2018-07-02T14:27:07.863Z,30.80
2018-07-02T14:29:37.133Z,30.60
2018-07-02T14:32:07.024Z,30.60
2018-07-02T14:34:36.308Z,30.50
2018-07-02T14:37:05.781Z,30.30
2018-07-02T14:39:34.987Z,30.40
2018-07-02T14:42:04.757Z,30.50
2018-07-02T14:44:34.065Z,30.40
2018-07-02T14:47:03.715Z,30.50
2018-07-02T14:49:32.947Z,30.40
2018-07-02T14:52:02.481Z,30.40
2018-07-02T14:57:00.625Z,30.60
2018-07-02T14:59:29.879Z,30.50
2018-07-02T15:04:34.719Z,30.50
2018-07-02T15:07:04.651Z,30.30
2018-07-02T15:09:34.084Z,30.10
2018-07-02T15:12:03.620Z,30.00
2018-07-02T15:17:02.359Z,30.10
2018-07-02T15:19:31.600Z,30.20
2018-07-02T15:22:01.025Z,30.00
2018-07-02T15:24:30.791Z,29.80
2018-07-02T15:27:00.472Z,29.70
2018-07-02T15:29:29.764Z,29.70
2018-07-02T15:34:27.969Z,29.50
2018-07-02T15:36:57.313Z,29.50
2018-07-02T15:39:26.748Z,29.40
2018-07-02T15:41:56.007Z,29.40
2018-07-02T15:44:25.471Z,29.20
2018-07-02T15:46:54.899Z,29.20
2018-07-02T15:49:24.347Z,29.10
2018-07-02T15:51:53.715Z,29.00
2018-07-02T15:54:23.081Z,29.00
2018-07-02T15:56:52.267Z,28.90
2018-07-02T16:01:50.238Z,28.80
2018-07-02T16:04:19.476Z,28.80
2018-07-02T16:06:50.090Z,28.80
2018-07-02T16:09:19.339Z,28.70
2018-07-02T16:11:48.768Z,28.70
2018-07-02T16:14:18.047Z,28.60
2018-07-02T16:16:47.574Z,28.60
2018-07-02T16:19:16.842Z,28.50
2018-07-02T16:21:46.404Z,28.50
2018-07-02T16:24:15.611Z,28.50
2018-07-02T16:26:44.826Z,28.60
2018-07-02T16:29:14.152Z,28.50
2018-07-02T16:31:43.488Z,28.50
2018-07-02T16:36:41.568Z,28.40
2018-07-02T16:41:40.281Z,28.20
2018-07-02T16:44:09.749Z,28.30
2018-07-02T16:46:39.012Z,28.20
2018-07-02T16:49:08.404Z,28.20
2018-07-02T16:51:38.256Z,28.10
2018-07-02T16:54:07.669Z,28.10
2018-07-02T16:56:36.887Z,28.10
2018-07-02T16:59:07.392Z,28.10
2018-07-02T17:01:36.890Z,28.00
2018-07-02T17:04:06.988Z,28.00
2018-07-02T17:06:36.314Z,28.00
2018-07-02T17:09:09.551Z,28.00
2018-07-02T17:11:40.000Z,27.90
2018-07-02T17:14:09.849Z,27.80
2018-07-02T17:16:40.008Z,27.80
2018-07-02T17:21:38.588Z,27.70
2018-07-02T17:24:12.556Z,27.60
2018-07-02T17:26:42.148Z,27.60
2018-07-02T17:29:11.775Z,27.60
2018-07-02T17:31:41.298Z,27.60
2018-07-02T17:34:10.717Z,27.60
2018-07-02T17:36:40.028Z,27.50
2018-07-02T17:41:39.224Z,27.50
2018-07-02T17:44:08.972Z,27.50
2018-07-02T17:46:38.212Z,27.50
2018-07-02T17:49:07.946Z,27.40
2018-07-02T17:51:37.790Z,27.40
2018-07-02T17:54:07.589Z,27.40
2018-07-02T17:56:36.869Z,27.40
2018-07-02T17:59:06.689Z,27.40
2018-07-02T18:01:36.251Z,27.40
2018-07-02T18:04:06.088Z,27.40
2018-07-02T18:06:35.416Z,27.40
2018-07-02T18:09:08.635Z,27.30
2018-07-02T18:11:38.515Z,27.30
2018-07-02T18:14:13.671Z,27.10
2018-07-02T18:16:49.101Z,27.00
2018-07-02T18:19:24.202Z,27.00
2018-07-02T18:21:59.464Z,26.90
2018-07-02T18:24:35.019Z,26.80
2018-07-02T18:27:10.761Z,26.60
2018-07-02T18:29:46.088Z,26.60
2018-07-02T18:32:21.471Z,26.50
2018-07-02T18:34:56.699Z,26.60
2018-07-02T18:37:31.885Z,26.50
2018-07-02T18:40:08.469Z,26.50
2018-07-02T18:42:43.665Z,26.50
2018-07-02T18:45:19.228Z,26.40
2018-07-02T18:47:54.481Z,26.40
2018-07-02T18:50:30.032Z,26.30
2018-07-02T18:53:05.341Z,26.30
2018-07-02T18:55:41.684Z,26.20
2018-07-02T18:58:17.023Z,26.20
2018-07-02T19:00:52.308Z,26.10
2018-07-02T19:03:27.494Z,26.10
2018-07-02T19:06:02.928Z,26.00
2018-07-02T19:08:38.333Z,26.00
2018-07-02T19:11:13.528Z,25.90
2018-07-02T19:13:49.514Z,25.90
2018-07-02T19:16:24.953Z,25.80
2018-07-02T19:19:00.289Z,25.70
2018-07-02T19:21:35.643Z,25.60
2018-07-02T19:26:46.313Z,25.50
2018-07-02T19:29:21.553Z,25.50
2018-07-02T19:31:56.953Z,25.50
2018-07-02T19:34:32.067Z,25.40
2018-07-02T19:37:07.385Z,25.40
2018-07-02T19:39:42.835Z,25.30
2018-07-02T19:42:18.322Z,25.20
2018-07-02T19:44:54.301Z,25.20
2018-07-02T19:47:29.480Z,25.20
2018-07-02T19:52:39.594Z,25.10
2018-07-02T19:55:15.026Z,25.00
2018-07-02T19:57:50.395Z,25.00
2018-07-02T20:00:25.762Z,24.90
2018-07-02T20:03:02.223Z,24.80
2018-07-02T20:05:37.332Z,24.70
2018-07-02T20:08:13.049Z,24.60
2018-07-02T20:10:48.409Z,24.50
2018-07-02T20:13:23.917Z,24.30
2018-07-02T20:15:59.073Z,24.30
2018-07-02T20:18:34.294Z,24.20
2018-07-02T20:21:09.985Z,24.20
2018-07-02T20:23:45.725Z,24.10
2018-07-02T20:26:21.023Z,24.10
2018-07-02T20:28:56.262Z,24.00
2018-07-02T20:34:32.672Z,23.90
2018-07-02T20:37:08.189Z,23.80
2018-07-02T20:42:45.296Z,23.80
2018-07-02T20:45:21.463Z,23.70
2018-07-02T20:47:57.034Z,23.60
2018-07-02T20:53:32.430Z,23.40
2018-07-02T20:56:08.257Z,23.40
2018-07-02T21:01:19.713Z,23.30
2018-07-02T21:03:54.923Z,23.40
2018-07-02T21:06:30.960Z,23.30
2018-07-02T21:09:08.746Z,23.20
2018-07-02T21:11:44.163Z,23.20
2018-07-02T21:14:19.486Z,23.20
2018-07-02T21:16:55.156Z,23.20
2018-07-02T21:19:30.379Z,23.10
2018-07-02T21:22:06.093Z,23.10
2018-07-02T21:24:41.450Z,23.10
2018-07-02T21:27:17.245Z,23.00
2018-07-02T21:32:28.542Z,23.00
2018-07-02T21:35:04.096Z,22.90
2018-07-02T21:37:40.217Z,22.90
2018-07-02T21:40:15.795Z,22.80
2018-07-02T21:42:51.283Z,22.70
2018-07-02T21:45:26.987Z,22.60
2018-07-02T21:50:37.259Z,22.70
2018-07-02T21:53:12.713Z,22.80
2018-07-02T21:55:52.628Z,22.80
2018-07-02T21:58:27.979Z,22.90
2018-07-02T22:01:15.931Z,22.70
2018-07-02T22:03:51.871Z,22.70
2018-07-02T22:06:27.348Z,22.70
2018-07-02T22:09:03.430Z,22.70
2018-07-02T22:11:40.105Z,22.50
2018-07-02T22:14:15.517Z,22.40
2018-07-02T22:16:51.073Z,22.40
2018-07-02T22:19:26.480Z,22.50
2018-07-02T22:22:01.591Z,22.50
2018-07-02T22:24:36.708Z,22.40
2018-07-02T22:27:12.016Z,22.40
2018-07-02T22:29:47.604Z,22.30
2018-07-02T22:32:22.755Z,22.30
2018-07-02T22:34:58.725Z,22.20
2018-07-02T22:37:35.141Z,22.10
2018-07-02T22:40:10.336Z,22.20
2018-07-02T22:42:45.675Z,22.10
2018-07-02T22:45:20.816Z,22.10
2018-07-02T22:47:56.117Z,22.10
2018-07-02T22:50:31.326Z,22.10
2018-07-02T22:53:07.280Z,22.10
2018-07-02T22:55:54.045Z,22.00
2018-07-02T22:58:29.201Z,22.00
2018-07-02T23:01:04.604Z,22.00
2018-07-02T23:03:39.735Z,21.90
2018-07-02T23:06:15.000Z,21.80
2018-07-02T23:08:50.115Z,21.90
2018-07-02T23:11:25.714Z,21.90
2018-07-02T23:14:00.923Z,22.00
2018-07-02T23:16:36.044Z,21.90
2018-07-02T23:19:11.375Z,21.80
2018-07-02T23:21:46.634Z,21.90
2018-07-02T23:24:21.984Z,21.90
2018-07-02T23:26:57.240Z,21.90
2018-07-02T23:29:32.494Z,21.90
2018-07-02T23:32:07.719Z,21.80
2018-07-02T23:34:42.968Z,21.90
2018-07-02T23:37:18.339Z,21.80
2018-07-02T23:39:53.708Z,21.70
2018-07-02T23:42:28.858Z,21.50
2018-07-02T23:45:04.179Z,21.60
2018-07-02T23:50:15.288Z,21.60
2018-07-02T23:52:51.487Z,21.50
2018-07-02T23:55:26.823Z,21.50
2018-07-02T23:58:02.026Z,21.50
